createdAt,value
2022-10-06T00:01:32.439Z,101001.42
2022-10-06T00:04:03.202Z,101007.95
2022-10-06T00:06:34.058Z,101012.89
2022-10-06T00:09:04.737Z,101017.08
2022-10-06T00:11:35.329Z,101018.80
2022-10-06T00:14:06.346Z,101013.40
2022-10-06T00:16:36.690Z,101020.13
2022-10-06T00:19:07.326Z,101024.38
2022-10-06T00:21:37.686Z,101027.27
2022-10-06T00:24:08.657Z,101032.70
2022-10-06T00:26:39.455Z,101036.77
2022-10-06T00:29:09.824Z,101037.29
2022-10-06T00:31:40.290Z,101039.38
2022-10-06T00:34:11.013Z,101041.21
2022-10-06T00:36:41.396Z,101042.96
2022-10-06T00:39:12.053Z,101057.79
2022-10-06T00:41:42.696Z,101060.71
2022-10-06T00:44:13.328Z,101064.41
2022-10-06T00:46:47.037Z,101064.53
2022-10-06T00:49:21.853Z,101069.59
2022-10-06T00:51:56.001Z,101080.57
2022-10-06T00:54:27.318Z,101082.97
2022-10-06T00:56:58.481Z,101083.67
2022-10-06T00:59:29.038Z,101092.42
2022-10-06T01:02:05.377Z,101099.90
2022-10-06T01:04:41.650Z,101123.85
2022-10-06T01:07:13.008Z,101157.73
2022-10-06T01:09:43.517Z,101173.27
2022-10-06T01:12:14.620Z,101186.52
2022-10-06T01:14:45.230Z,101196.38
2022-10-06T01:17:21.078Z,101209.69
2022-10-06T01:19:56.408Z,101224.23
2022-10-06T01:22:32.510Z,101234.73
2022-10-06T01:25:03.377Z,101244.56
2022-10-06T01:27:36.109Z,101246.80
2022-10-06T01:30:10.149Z,101242.81
2022-10-06T01:32:41.794Z,101230.60
2022-10-06T01:35:13.310Z,101230.75
2022-10-06T01:37:44.038Z,101233.35
2022-10-06T01:40:14.591Z,101238.34
2022-10-06T01:42:45.578Z,101246.45
2022-10-06T01:45:15.970Z,101257.17
2022-10-06T01:47:46.459Z,101264.38
2022-10-06T01:50:17.201Z,101271.39
2022-10-06T01:52:48.074Z,101281.29
2022-10-06T01:55:19.409Z,101286.34
2022-10-06T01:57:50.490Z,101288.71
2022-10-06T02:00:21.331Z,101284.27
2022-10-06T02:02:51.764Z,101281.23
2022-10-06T02:05:22.793Z,101291.51
2022-10-06T02:07:53.478Z,101299.59
2022-10-06T02:10:24.163Z,101306.95
2022-10-06T02:12:55.655Z,101293.58
2022-10-06T02:15:26.983Z,101294.67
2022-10-06T02:17:57.679Z,101299.81
2022-10-06T02:20:29.007Z,101299.42
2022-10-06T02:23:00.195Z,101312.25
2022-10-06T02:25:30.821Z,101315.77
2022-10-06T02:28:01.199Z,101325.00
2022-10-06T02:30:31.884Z,101330.69
2022-10-06T02:33:02.399Z,101327.84
2022-10-06T02:35:33.027Z,101328.55
2022-10-06T02:38:03.425Z,101328.39
2022-10-06T02:40:34.894Z,101332.38
2022-10-06T02:43:05.618Z,101344.73
2022-10-06T02:45:37.179Z,101345.70
2022-10-06T02:48:08.137Z,101351.45
2022-10-06T02:50:39.381Z,101361.55
2022-10-06T02:53:11.036Z,101364.52
2022-10-06T02:55:41.965Z,101372.89
2022-10-06T02:58:12.340Z,101378.05
2022-10-06T03:00:43.024Z,101385.89
2022-10-06T03:03:14.002Z,101395.11
2022-10-06T03:05:44.674Z,101396.66
2022-10-06T03:08:15.434Z,101403.02
2022-10-06T03:10:46.382Z,101410.48
2022-10-06T03:13:17.334Z,101419.53
2022-10-06T03:15:48.006Z,101430.73
2022-10-06T03:18:18.669Z,101425.75
2022-10-06T03:20:49.325Z,101434.48
2022-10-06T03:23:19.715Z,101434.63
2022-10-06T03:25:59.145Z,101438.77
2022-10-06T03:28:30.475Z,101444.31
2022-10-06T03:31:06.111Z,101451.20
2022-10-06T03:33:37.097Z,101457.77
2022-10-06T03:36:09.602Z,101464.44
2022-10-06T03:38:40.824Z,101468.36
2022-10-06T03:41:13.018Z,101475.23
2022-10-06T03:43:46.096Z,101478.97
2022-10-06T03:46:18.560Z,101480.20
2022-10-06T03:48:51.126Z,101476.46
2022-10-06T03:51:23.325Z,101485.10
2022-10-06T03:53:54.797Z,101488.63
2022-10-06T03:56:28.186Z,101491.77
2022-10-06T03:59:00.647Z,101493.41
2022-10-06T04:01:33.260Z,101495.84
2022-10-06T04:04:05.265Z,101502.48
2022-10-06T04:06:37.600Z,101503.75
2022-10-06T04:09:14.757Z,101505.05
2022-10-06T04:11:46.662Z,101507.23
2022-10-06T04:14:18.266Z,101518.67
2022-10-06T04:16:50.548Z,101524.20
2022-10-06T04:19:22.064Z,101521.43
2022-10-06T04:21:52.413Z,101527.96
2022-10-06T04:24:23.029Z,101536.64
2022-10-06T04:26:53.924Z,101545.84
2022-10-06T04:29:24.241Z,101541.35
2022-10-06T04:31:55.461Z,101545.33
2022-10-06T04:34:26.501Z,101550.77
2022-10-06T04:36:57.117Z,101553.92
2022-10-06T04:39:27.491Z,101553.48
2022-10-06T04:41:58.175Z,101558.75
2022-10-06T04:44:28.598Z,101561.19
2022-10-06T04:47:00.855Z,101563.70
2022-10-06T04:49:31.806Z,101570.74
2022-10-06T04:52:02.448Z,101568.64
2022-10-06T04:54:33.992Z,101572.05
2022-10-06T04:57:05.856Z,101577.39
2022-10-06T04:59:53.707Z,101584.63
2022-10-06T05:02:24.927Z,101592.54
2022-10-06T05:04:57.870Z,101597.55
2022-10-06T05:07:28.580Z,101602.23
2022-10-06T05:09:59.870Z,101610.60
2022-10-06T05:12:31.155Z,101609.63
2022-10-06T05:15:01.580Z,101618.00
2022-10-06T05:17:31.926Z,101619.83
2022-10-06T05:20:02.238Z,101628.37
2022-10-06T05:22:32.589Z,101632.02
2022-10-06T05:25:03.603Z,101642.02
2022-10-06T05:27:34.218Z,101645.20
2022-10-06T05:30:05.105Z,101654.77
2022-10-06T05:32:36.332Z,101660.75
2022-10-06T05:35:08.908Z,101668.55
2022-10-06T05:37:39.690Z,101672.40
2022-10-06T05:40:11.503Z,101680.50
2022-10-06T05:42:42.128Z,101692.95
2022-10-06T05:45:13.879Z,101694.73
2022-10-06T05:47:44.610Z,101696.02
2022-10-06T05:50:15.268Z,101706.05
2022-10-06T05:52:46.542Z,101709.40
2022-10-06T05:55:17.700Z,101716.06
2022-10-06T05:57:48.907Z,101724.17
2022-10-06T06:00:19.945Z,101723.69
2022-10-06T06:02:51.304Z,101731.79
2022-10-06T06:05:22.302Z,101737.77
2022-10-06T06:07:52.927Z,101745.86
2022-10-06T06:10:23.516Z,101750.11
2022-10-06T06:12:53.863Z,101754.21
2022-10-06T06:15:42.202Z,101759.41
2022-10-06T06:18:14.787Z,101760.90
2022-10-06T06:20:45.445Z,101765.90
2022-10-06T06:23:16.436Z,101778.79
2022-10-06T06:26:01.410Z,101782.56
2022-10-06T06:28:35.391Z,101779.96
2022-10-06T06:31:08.192Z,101789.11
2022-10-06T06:33:39.924Z,101798.71
2022-10-06T06:36:17.441Z,101806.95
2022-10-06T06:38:51.929Z,101804.80
2022-10-06T06:41:23.801Z,101807.77
2022-10-06T06:43:54.887Z,101809.73
2022-10-06T06:46:28.062Z,101820.02
2022-10-06T06:49:04.286Z,101826.59
2022-10-06T06:51:35.632Z,101834.14
2022-10-06T06:54:07.484Z,101837.81
2022-10-06T06:56:38.949Z,101845.97
2022-10-06T06:59:11.843Z,101849.73
2022-10-06T07:01:45.555Z,101861.16
2022-10-06T07:04:18.099Z,101865.98
2022-10-06T07:06:57.233Z,101865.20
2022-10-06T07:09:28.298Z,101874.55
2022-10-06T07:11:58.634Z,101878.42
2022-10-06T07:14:28.965Z,101879.27
2022-10-06T07:17:16.829Z,101887.55
2022-10-06T07:20:19.710Z,101896.60
2022-10-06T07:23:07.572Z,101905.70
2022-10-06T07:25:37.884Z,101915.26
2022-10-06T07:28:09.696Z,101915.42
2022-10-06T07:30:41.241Z,101919.66
2022-10-06T07:33:11.861Z,101924.77
2022-10-06T07:35:42.346Z,101930.23
2022-10-06T07:38:12.724Z,101931.98
2022-10-06T07:40:50.545Z,101940.83
2022-10-06T07:43:21.283Z,101945.98
2022-10-06T07:45:51.835Z,101948.77
2022-10-06T07:48:23.833Z,101949.39
2022-10-06T07:50:54.890Z,101953.33
2022-10-06T07:53:29.712Z,101959.27
2022-10-06T07:56:06.893Z,101961.39
2022-10-06T07:58:37.849Z,101964.69
2022-10-06T08:01:10.813Z,101964.81
2022-10-06T08:03:42.902Z,101975.94
2022-10-06T08:06:14.316Z,101973.09
2022-10-06T08:08:50.228Z,101977.06
2022-10-06T08:11:24.396Z,101981.48
2022-10-06T08:13:55.147Z,101988.48
2022-10-06T08:16:30.143Z,101991.88
2022-10-06T08:19:01.637Z,101995.30
2022-10-06T08:21:34.418Z,102000.60
2022-10-06T08:24:04.932Z,102001.08
2022-10-06T08:26:35.970Z,102004.42
2022-10-06T08:29:06.331Z,102012.46
2022-10-06T08:31:37.149Z,102018.09
2022-10-06T08:34:12.013Z,102021.18
2022-10-06T08:36:56.970Z,102025.69
2022-10-06T08:39:34.461Z,102024.63
2022-10-06T08:42:05.028Z,102024.20
2022-10-06T08:44:42.462Z,102031.21
2022-10-06T08:47:17.742Z,102035.81
2022-10-06T08:49:50.547Z,102034.64
2022-10-06T08:52:35.868Z,102037.37
2022-10-06T08:55:14.678Z,102036.35
2022-10-06T08:57:54.365Z,102035.15
2022-10-06T09:00:24.655Z,102038.80
2022-10-06T09:02:56.965Z,102040.42
2022-10-06T09:05:29.892Z,102041.73
2022-10-06T09:08:12.517Z,102042.23
2022-10-06T09:10:54.847Z,102046.14
2022-10-06T09:13:30.393Z,102048.38
2022-10-06T09:16:07.276Z,102045.67
2022-10-06T09:19:06.833Z,102047.84
2022-10-06T09:21:36.389Z,102051.36
2022-10-06T09:24:13.821Z,102052.05
2022-10-06T09:26:46.350Z,102057.50
2022-10-06T09:29:17.672Z,102057.12
2022-10-06T09:31:50.786Z,102060.86
2022-10-06T09:34:27.169Z,102057.77
2022-10-06T09:37:03.765Z,102069.08
2022-10-06T09:39:37.206Z,102069.05
2022-10-06T09:42:19.602Z,102072.96
2022-10-06T09:44:58.364Z,102074.54
2022-10-06T09:47:45.960Z,102081.94
2022-10-06T09:50:23.050Z,102086.98
2022-10-06T09:53:17.026Z,102089.73
2022-10-06T09:55:53.641Z,102093.60
2022-10-06T09:58:31.465Z,102093.88
2022-10-06T10:01:03.941Z,102092.36
2022-10-06T10:04:15.528Z,102095.09
2022-10-06T10:06:42.345Z,102097.33
2022-10-06T10:09:30.385Z,102098.96
2022-10-06T10:12:28.933Z,102100.24
2022-10-06T10:15:02.475Z,102106.98
2022-10-06T10:17:45.764Z,102106.14
2022-10-06T10:20:41.864Z,102101.81
2022-10-06T10:23:30.926Z,102103.77
2022-10-06T10:26:22.066Z,102099.16
2022-10-06T10:29:07.930Z,102102.27
2022-10-06T10:31:51.542Z,102110.15
2022-10-06T10:34:38.206Z,102112.36
2022-10-06T10:37:13.458Z,102117.50
2022-10-06T10:39:48.785Z,102115.09
2022-10-06T10:42:24.288Z,102119.88
2022-10-06T10:44:59.143Z,102119.48
2022-10-06T10:47:35.871Z,102122.41
2022-10-06T10:50:17.448Z,102125.02
2022-10-06T10:52:51.717Z,102129.73
2022-10-06T10:55:28.544Z,102138.13
2022-10-06T10:58:05.513Z,102136.30
2022-10-06T11:00:42.597Z,102136.31
2022-10-06T11:03:13.006Z,102134.05
2022-10-06T11:06:14.736Z,102126.66
2022-10-06T11:08:51.004Z,102128.38
2022-10-06T11:11:33.018Z,102126.39
2022-10-06T11:14:10.927Z,102127.95
2022-10-06T11:16:51.266Z,102126.71
2022-10-06T11:19:35.033Z,102127.60
2022-10-06T11:22:13.732Z,102137.50
2022-10-06T11:24:54.540Z,102135.23
2022-10-06T11:27:39.716Z,102130.55
2022-10-06T11:30:19.522Z,102131.34
2022-10-06T11:33:03.927Z,102131.81
2022-10-06T11:35:39.918Z,102137.93
2022-10-06T11:38:21.590Z,102137.00
2022-10-06T11:41:09.872Z,102135.01
2022-10-06T11:43:47.380Z,102136.88
2022-10-06T11:46:35.617Z,102136.48
2022-10-06T11:49:56.032Z,102138.14
2022-10-06T11:52:48.287Z,102138.63
2022-10-06T11:55:23.835Z,102138.31
2022-10-06T12:01:30.899Z,102140.39
2022-10-06T12:04:20.639Z,102138.53
2022-10-06T12:07:04.822Z,102140.94
2022-10-06T12:10:14.895Z,102141.16
2022-10-06T12:13:39.129Z,102150.41
2022-10-06T12:19:11.992Z,102143.54
2022-10-06T12:21:51.496Z,102140.96
2022-10-06T12:24:31.283Z,102141.04
2022-10-06T12:27:25.701Z,102132.85
2022-10-06T12:30:02.932Z,102135.42
2022-10-06T12:32:46.392Z,102140.49
2022-10-06T12:35:36.885Z,102142.19
2022-10-06T12:38:28.606Z,102138.73
2022-10-06T12:40:59.668Z,102134.45
2022-10-06T12:43:48.721Z,102136.50
2022-10-06T12:46:26.754Z,102136.07
2022-10-06T12:49:14.069Z,102132.15
2022-10-06T12:51:46.016Z,102135.64
2022-10-06T12:54:21.346Z,102136.44
2022-10-06T12:57:02.714Z,102138.13
2022-10-06T12:59:34.846Z,102136.09
2022-10-06T13:02:11.397Z,102133.71
2022-10-06T13:04:44.919Z,102132.65
2022-10-06T13:07:19.988Z,102134.66
2022-10-06T13:09:53.713Z,102135.17
2022-10-06T13:12:38.603Z,102137.71
2022-10-06T13:18:14.172Z,102133.23
2022-10-06T13:20:48.139Z,102134.13
2022-10-06T13:23:30.429Z,102134.52
2022-10-06T13:26:02.537Z,102134.38
2022-10-06T13:28:49.670Z,102136.20
2022-10-06T13:31:24.029Z,102137.48
2022-10-06T13:33:59.712Z,102141.95
2022-10-06T13:36:31.462Z,102143.86
2022-10-06T13:39:04.457Z,102145.04
2022-10-06T13:41:38.079Z,102150.91
2022-10-06T13:44:29.259Z,102147.90
2022-10-06T13:47:02.234Z,102151.59
2022-10-06T13:49:42.041Z,102149.16
2022-10-06T13:52:20.511Z,102150.75
2022-10-06T13:54:54.871Z,102149.98
2022-10-06T13:57:40.395Z,102151.39
2022-10-06T14:00:19.844Z,102143.74
2022-10-06T14:02:52.534Z,102151.72
2022-10-06T14:05:40.350Z,102150.23
2022-10-06T14:08:24.771Z,102145.17
2022-10-06T14:10:57.904Z,102143.21
2022-10-06T14:13:32.306Z,102145.30
2022-10-06T14:16:06.824Z,102150.52
2022-10-06T14:18:41.438Z,102155.44
2022-10-06T14:21:30.163Z,102156.75
2022-10-06T14:24:04.763Z,102156.70
2022-10-06T14:26:38.469Z,102153.56
2022-10-06T14:29:08.982Z,102148.46
2022-10-06T14:31:39.664Z,102149.94
2022-10-06T14:34:14.658Z,102150.91
2022-10-06T14:36:47.317Z,102151.76
2022-10-06T14:39:18.670Z,102152.04
2022-10-06T14:41:53.644Z,102157.46
2022-10-06T14:44:24.776Z,102157.85
2022-10-06T14:46:55.372Z,102160.02
2022-10-06T14:49:26.328Z,102159.54
2022-10-06T14:51:57.050Z,102157.45
2022-10-06T14:54:28.681Z,102150.57
2022-10-06T14:56:59.370Z,102154.55
2022-10-06T14:59:30.132Z,102154.74
2022-10-06T15:02:01.076Z,102159.27
2022-10-06T15:04:31.750Z,102152.62
2022-10-06T15:07:22.213Z,102156.48
2022-10-06T15:09:53.167Z,102145.82
2022-10-06T15:12:23.558Z,102154.13
2022-10-06T15:14:55.129Z,102155.85
2022-10-06T15:17:25.875Z,102155.80
2022-10-06T15:19:56.839Z,102161.09
2022-10-06T15:22:28.164Z,102163.58
2022-10-06T15:24:59.355Z,102164.29
2022-10-06T15:27:47.739Z,102164.56
2022-10-06T15:30:18.745Z,102157.21
2022-10-06T15:32:51.072Z,102155.62
2022-10-06T15:35:21.501Z,102157.05
2022-10-06T15:37:55.313Z,102163.06
2022-10-06T15:40:26.465Z,102164.48
2022-10-06T15:42:56.836Z,102164.73
2022-10-06T15:45:27.695Z,102165.09
2022-10-06T15:47:58.343Z,102169.90
2022-10-06T15:50:29.400Z,102169.46
2022-10-06T15:53:00.181Z,102170.91
2022-10-06T15:55:31.207Z,102172.23
2022-10-06T15:58:02.230Z,102172.41
2022-10-06T16:00:33.248Z,102171.90
2022-10-06T16:03:17.010Z,102170.73
2022-10-06T16:05:51.874Z,102166.85
2022-10-06T16:08:22.796Z,102164.35
2022-10-06T16:10:53.605Z,102163.52
2022-10-06T16:13:24.344Z,102164.48
2022-10-06T16:15:58.327Z,102167.20
2022-10-06T16:18:29.597Z,102171.41
2022-10-06T16:21:00.490Z,102170.83
2022-10-06T16:23:31.432Z,102174.17
2022-10-06T16:26:05.208Z,102174.17
2022-10-06T16:28:36.047Z,102177.47
2022-10-06T16:31:07.080Z,102178.90
2022-10-06T16:33:37.554Z,102171.45
2022-10-06T16:36:08.837Z,102179.16
2022-10-06T16:38:39.240Z,102177.36
2022-10-06T16:41:10.771Z,102175.31
2022-10-06T16:43:43.208Z,102179.59
2022-10-06T16:46:15.481Z,102186.39
2022-10-06T16:48:48.982Z,102190.05
2022-10-06T16:51:21.049Z,102192.09
2022-10-06T16:53:52.921Z,102191.69
2022-10-06T16:56:26.788Z,102195.54
2022-10-06T16:58:59.180Z,102198.73
2022-10-06T17:01:31.990Z,102198.70
2022-10-06T17:04:04.090Z,102201.23
2022-10-06T17:06:39.206Z,102205.36
2022-10-06T17:09:11.914Z,102208.40
2022-10-06T17:11:43.411Z,102208.51
2022-10-06T17:14:14.279Z,102204.55
2022-10-06T17:16:46.631Z,102209.52
2022-10-06T17:19:19.362Z,102212.74
2022-10-06T17:21:55.758Z,102210.31
2022-10-06T17:24:29.233Z,102209.11
2022-10-06T17:27:01.047Z,102207.09
2022-10-06T17:29:31.698Z,102206.99
2022-10-06T17:32:03.489Z,102203.54
2022-10-06T17:34:34.751Z,102205.86
2022-10-06T17:37:05.570Z,102207.20
2022-10-06T17:39:36.403Z,102204.66
2022-10-06T17:42:08.270Z,102211.48
2022-10-06T17:44:38.707Z,102210.73
2022-10-06T17:47:12.637Z,102216.57
2022-10-06T17:49:43.830Z,102213.46
2022-10-06T17:52:14.242Z,102213.12
2022-10-06T17:54:46.344Z,102212.96
2022-10-06T17:57:19.923Z,102212.73
2022-10-06T17:59:50.821Z,102218.16
2022-10-06T18:02:21.773Z,102217.46
2022-10-06T18:04:53.658Z,102219.11
2022-10-06T18:07:24.704Z,102217.90
2022-10-06T18:10:09.798Z,102218.48
2022-10-06T18:12:40.675Z,102217.05
2022-10-06T18:15:13.092Z,102219.52
2022-10-06T18:17:44.016Z,102218.52
2022-10-06T18:20:16.116Z,102222.19
2022-10-06T18:22:48.616Z,102218.70
2022-10-06T18:25:24.440Z,102218.76
2022-10-06T18:27:57.720Z,102215.70
2022-10-06T18:30:29.536Z,102215.17
2022-10-06T18:36:15.288Z,102214.98
2022-10-06T18:38:47.456Z,102216.13
2022-10-06T18:41:19.953Z,102215.43
2022-10-06T18:43:51.191Z,102216.03
2022-10-06T18:46:40.448Z,102215.52
2022-10-06T18:49:15.331Z,102215.03
2022-10-06T18:51:48.619Z,102216.70
2022-10-06T18:54:22.281Z,102223.14
2022-10-06T18:56:52.867Z,102222.87
2022-10-06T18:59:26.342Z,102222.86
2022-10-06T19:02:00.324Z,102224.23
2022-10-06T19:04:32.798Z,102225.50
2022-10-06T19:07:04.092Z,102223.60
2022-10-06T19:09:34.994Z,102227.42
2022-10-06T19:12:06.285Z,102226.26
2022-10-06T19:14:42.905Z,102228.84
2022-10-06T19:17:15.151Z,102229.04
2022-10-06T19:19:47.965Z,102228.18
2022-10-06T19:22:23.825Z,102234.39
2022-10-06T19:24:54.249Z,102237.83
2022-10-06T19:27:26.117Z,102233.67
2022-10-06T19:29:57.428Z,102233.52
2022-10-06T19:32:32.740Z,102235.22
2022-10-06T19:35:09.237Z,102232.55
2022-10-06T19:37:42.264Z,102240.11
2022-10-06T19:40:12.973Z,102239.78
2022-10-06T19:42:51.116Z,102237.08
2022-10-06T19:45:21.770Z,102234.17
2022-10-06T19:47:52.467Z,102230.27
2022-10-06T19:50:22.843Z,102231.85
2022-10-06T19:52:53.522Z,102225.14
2022-10-06T19:55:24.273Z,102228.26
2022-10-06T19:57:55.200Z,102231.92
2022-10-06T20:00:25.518Z,102231.59
2022-10-06T20:02:56.556Z,102236.61
2022-10-06T20:05:26.874Z,102236.11
2022-10-06T20:07:57.615Z,102240.27
2022-10-06T20:10:27.952Z,102243.95
2022-10-06T20:12:59.171Z,102251.33
2022-10-06T20:15:29.825Z,102251.77
2022-10-06T20:18:00.193Z,102255.34
2022-10-06T20:20:30.629Z,102255.91
2022-10-06T20:23:01.653Z,102254.20
2022-10-06T20:25:34.170Z,102254.50
2022-10-06T20:28:08.856Z,102254.36
2022-10-06T20:30:42.347Z,102253.66
2022-10-06T20:33:12.775Z,102257.81
2022-10-06T20:35:43.358Z,102254.73
2022-10-06T20:38:14.686Z,102255.55
2022-10-06T20:40:49.216Z,102253.52
2022-10-06T20:43:21.214Z,102250.46
2022-10-06T20:45:55.753Z,102251.14
2022-10-06T20:48:28.811Z,102247.59
2022-10-06T20:50:59.740Z,102249.40
2022-10-06T20:53:32.437Z,102250.83
2022-10-06T20:56:05.322Z,102250.05
2022-10-06T20:58:36.299Z,102244.39
2022-10-06T21:01:10.677Z,102254.40
2022-10-06T21:03:47.570Z,102246.51
2022-10-06T21:06:19.074Z,102246.52
2022-10-06T21:08:49.877Z,102240.71
2022-10-06T21:11:23.034Z,102241.82
2022-10-06T21:13:54.941Z,102244.52
2022-10-06T21:16:27.621Z,102243.39
2022-10-06T21:18:59.224Z,102246.98
2022-10-06T21:21:30.116Z,102245.84
2022-10-06T21:24:01.976Z,102244.56
2022-10-06T21:26:33.938Z,102245.02
2022-10-06T21:29:04.939Z,102243.04
2022-10-06T21:31:35.543Z,102245.02
2022-10-06T21:34:07.663Z,102238.91
2022-10-06T21:36:38.506Z,102241.39
2022-10-06T21:39:09.352Z,102238.69
2022-10-06T21:41:41.516Z,102241.07
2022-10-06T21:44:13.559Z,102235.35
2022-10-06T21:46:47.512Z,102234.77
2022-10-06T21:49:20.039Z,102229.21
2022-10-06T21:51:52.559Z,102226.17
2022-10-06T21:54:24.092Z,102221.05
2022-10-06T21:56:55.610Z,102221.42
2022-10-06T21:59:26.530Z,102224.19
2022-10-06T22:01:57.599Z,102223.32
2022-10-06T22:04:28.362Z,102224.59
2022-10-06T22:06:59.006Z,102228.47
2022-10-06T22:09:30.516Z,102229.70
2022-10-06T22:12:01.291Z,102228.52
2022-10-06T22:14:32.630Z,102228.33
2022-10-06T22:17:05.122Z,102222.35
2022-10-06T22:19:35.839Z,102218.48
2022-10-06T22:22:06.783Z,102215.09
2022-10-06T22:24:38.364Z,102214.05
2022-10-06T22:27:09.067Z,102217.36
2022-10-06T22:29:39.902Z,102218.50
2022-10-06T22:32:10.841Z,102219.74
2022-10-06T22:34:41.475Z,102215.91
2022-10-06T22:37:12.103Z,102211.86
2022-10-06T22:39:43.353Z,102206.26
2022-10-06T22:42:13.919Z,102204.39
2022-10-06T22:44:44.511Z,102199.09
2022-10-06T22:47:17.806Z,102195.92
2022-10-06T22:49:48.540Z,102197.61
2022-10-06T22:52:19.581Z,102192.52
2022-10-06T22:54:50.216Z,102191.25
2022-10-06T22:57:21.152Z,102194.48
2022-10-06T22:59:52.091Z,102191.95
2022-10-06T23:02:22.722Z,102195.14
2022-10-06T23:04:53.354Z,102186.77
2022-10-06T23:07:24.299Z,102184.20
2022-10-06T23:09:55.030Z,102186.04
2022-10-06T23:12:26.154Z,102185.73
2022-10-06T23:14:56.808Z,102184.80
2022-10-06T23:17:27.740Z,102184.61
2022-10-06T23:19:58.579Z,102187.86
2022-10-06T23:22:30.336Z,102185.90
2022-10-06T23:25:00.968Z,102181.95
2022-10-06T23:27:31.597Z,102179.71
2022-10-06T23:30:02.331Z,102175.23
2022-10-06T23:32:33.477Z,102172.30
2022-10-06T23:35:04.809Z,102174.84
2022-10-06T23:37:35.456Z,102176.70
2022-10-06T23:40:07.342Z,102177.61
2022-10-06T23:42:37.961Z,102176.23
2022-10-06T23:45:10.796Z,102171.02
2022-10-06T23:47:41.608Z,102172.58
2022-10-06T23:50:12.914Z,102174.78
2022-10-06T23:52:43.500Z,102172.05
2022-10-06T23:55:14.690Z,102171.71
2022-10-06T23:57:46.171Z,102168.48
